Time;durP1;ratioP1;P1;durP2;ratioP2;P2;SDS_P1;SDS_P2;PMS_P1;PMS_P2;Temp;Humidity;BMP_temperature;BMP_pressure;BME280_temperature;BME280_humidity;BME280_pressure;Samples;Min_cycle;Max_cycle;Signal;HPM_P1;HPM_P2
2022/04/25 00:01:01;;;;;;;14.18;9.18;;;;;;;9.95;100.00;98195.25;5127533;27;20384;-90
2022/04/25 00:03:27;;;;;;;17.73;8.65;;;;;;;9.95;100.00;98176.66;5127407;27;20080;-91
2022/04/25 00:05:53;;;;;;;18.15;9.43;;;;;;;9.92;100.00;98182.09;5128207;28;20039;-92
2022/04/25 00:08:19;;;;;;;17.65;8.98;;;;;;;9.89;100.00;98182.22;5127483;28;20039;-90
2022/04/25 00:10:45;;;;;;;21.55;7.45;;;;;;;9.92;100.00;98176.78;5127933;28;20031;-91
2022/04/25 00:13:13;;;;;;;16.90;8.15;;;;;;;10.00;100.00;98201.31;5127237;27;20035;-92
2022/04/25 00:15:40;;;;;;;19.67;7.70;;;;;;;9.94;100.00;98177.59;5126985;28;20031;-90
2022/04/25 00:18:06;;;;;;;20.60;8.23;;;;;;;10.07;100.00;98188.69;5127876;27;20043;-91
2022/04/25 00:20:32;;;;;;;21.58;8.25;;;;;;;10.06;100.00;98189.59;5127506;28;20392;-91
2022/04/25 00:23:00;;;;;;;23.50;8.75;;;;;;;10.00;100.00;98171.22;5127209;28;20493;-91
2022/04/25 00:25:27;;;;;;;19.90;9.30;;;;;;;10.04;100.00;98172.81;5126701;28;20031;-90
2022/04/25 00:27:53;;;;;;;21.92;8.80;;;;;;;10.07;100.00;98178.91;5127803;27;20042;-91
2022/04/25 00:30:20;;;;;;;28.35;8.93;;;;;;;10.08;100.00;98172.69;5128068;27;20047;-93
2022/04/25 00:32:47;;;;;;;26.02;8.32;;;;;;;10.05;100.00;98161.28;5128050;27;20043;-93
2022/04/25 00:35:13;;;;;;;15.93;7.45;;;;;;;10.05;100.00;98170.13;5116793;27;20081;-91
2022/04/25 00:37:39;;;;;;;20.80;9.07;;;;;;;10.15;100.00;98199.03;5113603;28;20039;-90
2022/04/25 00:40:06;;;;;;;21.90;8.23;;;;;;;10.14;100.00;98194.66;5113835;27;20043;-91
2022/04/25 00:42:32;;;;;;;17.48;7.63;;;;;;;10.08;100.00;98191.28;5113501;28;20036;-92
2022/04/25 00:44:59;;;;;;;17.08;7.85;;;;;;;10.05;100.00;98185.19;5113523;28;20039;-92
2022/04/25 00:47:26;;;;;;;19.98;8.20;;;;;;;10.22;100.00;98213.84;5113809;28;20077;-91
2022/04/25 00:49:54;;;;;;;16.30;6.95;;;;;;;10.14;100.00;98184.88;5113692;28;20051;-89
2022/04/25 00:52:20;;;;;;;17.98;7.28;;;;;;;10.11;100.00;98187.66;5113614;28;20039;-89
2022/04/25 00:54:46;;;;;;;21.52;7.65;;;;;;;10.20;100.00;98203.28;5112708;27;20050;-88
2022/04/25 00:57:12;;;;;;;22.33;7.95;;;;;;;10.06;100.00;98181.59;5113100;28;20042;-90
2022/04/25 00:59:39;;;;;;;15.63;7.50;;;;;;;10.20;100.00;98205.06;5113682;28;20071;-91
2022/04/25 01:02:05;;;;;;;22.90;7.63;;;;;;;10.21;100.00;98215.66;5114576;27;20039;-90
2022/04/25 01:04:31;;;;;;;20.73;7.57;;;;;;;10.18;100.00;98206.91;5113035;28;20048;-90
2022/04/25 01:06:58;;;;;;;22.20;7.57;;;;;;;10.20;100.00;98211.25;5113222;28;20086;-89
2022/04/25 01:09:25;;;;;;;16.55;6.45;;;;;;;10.24;100.00;98214.69;5112062;28;20131;-90
2022/04/25 01:11:52;;;;;;;18.50;7.32;;;;;;;10.19;100.00;98204.22;5113041;28;20050;-91
2022/04/25 01:14:20;;;;;;;18.73;7.60;;;;;;;10.23;100.00;98196.97;5113224;28;20546;-89
2022/04/25 01:16:48;;;;;;;25.27;7.32;;;;;;;10.28;100.00;98206.53;5113551;28;20854;-91
2022/04/25 01:19:15;;;;;;;17.98;7.47;;;;;;;10.17;100.00;98186.56;5112436;28;20051;-90
2022/04/25 01:21:45;;;;;;;21.95;8.15;;;;;;;10.13;100.00;98182.25;5112725;28;20035;-91
2022/04/25 01:27:16;;;;;;;18.60;7.53;;;;;;;10.23;100.00;98202.28;5130680;27;20129;-91
2022/04/25 01:29:42;;;;;;;21.35;7.63;;;;;;;10.21;100.00;98199.72;5115647;28;20067;-91
2022/04/25 01:32:09;;;;;;;25.10;8.10;;;;;;;10.17;100.00;98199.84;5113193;27;20140;-90
2022/04/25 01:34:37;;;;;;;23.95;8.55;;;;;;;10.15;100.00;98199.03;5111543;28;20112;-91
2022/04/25 01:37:05;;;;;;;18.35;7.15;;;;;;;10.13;100.00;98200.88;5113781;27;20124;-89
2022/04/25 01:39:31;;;;;;;24.90;7.90;;;;;;;10.02;100.00;98188.84;5114305;28;20039;-91
2022/04/25 01:41:56;;;;;;;21.33;6.88;;;;;;;9.91;100.00;98169.75;5119073;28;20500;-91
2022/04/25 01:44:24;;;;;;;19.42;7.55;;;;;;;9.96;100.00;98182.88;5119623;27;20122;-90
2022/04/25 01:46:49;;;;;;;17.85;7.18;;;;;;;10.01;100.00;98191.53;5112958;28;20032;-91
2022/04/25 01:49:15;;;;;;;22.38;7.82;;;;;;;9.83;100.00;98161.16;5112610;28;20134;-90
2022/04/25 01:51:41;;;;;;;22.13;7.53;;;;;;;9.78;100.00;98171.06;5115378;28;20038;-91
2022/04/25 01:54:07;;;;;;;18.45;6.75;;;;;;;9.74;100.00;98162.34;5114994;27;20123;-89
2022/04/25 01:56:32;;;;;;;18.17;7.18;;;;;;;9.73;100.00;98170.34;5115619;27;20434;-90
2022/04/25 01:58:58;;;;;;;15.52;6.82;;;;;;;9.70;100.00;98175.78;5113601;28;20512;-91
2022/04/25 02:01:25;;;;;;;17.73;7.00;;;;;;;9.66;100.00;98185.63;5116550;27;20040;-92
2022/04/25 02:03:51;;;;;;;24.13;8.02;;;;;;;9.64;100.00;98177.69;5116580;28;20031;-92
2022/04/25 02:06:17;;;;;;;14.55;6.65;;;;;;;9.65;100.00;98173.28;5112952;27;20035;-91
2022/04/25 02:08:43;;;;;;;17.90;7.25;;;;;;;9.66;100.00;98177.66;5113862;28;20044;-92
2022/04/25 02:14:02;;;;;;;34.85;10.10;;;;;;;9.72;100.00;98180.13;5120560;27;20136;-90
2022/04/25 02:16:28;;;;;;;21.25;8.55;;;;;;;9.68;100.00;98172.31;5088571;28;20486;-91
2022/04/25 02:18:54;;;;;;;17.88;9.13;;;;;;;9.63;100.00;98159.19;5088169;28;20058;-90
2022/04/25 02:21:20;;;;;;;20.95;7.88;;;;;;;9.63;100.00;98156.53;5087617;28;20060;-90
2022/04/25 02:23:46;;;;;;;22.50;8.32;;;;;;;9.61;100.00;98156.56;5088735;28;20051;-90
2022/04/25 02:26:13;;;;;;;23.05;8.05;;;;;;;9.64;100.00;98148.50;5088140;28;20390;-93
2022/04/25 02:28:39;;;;;;;15.30;7.22;;;;;;;9.77;100.00;98172.84;5088091;28;20040;-91
2022/04/25 02:31:07;;;;;;;19.90;7.38;;;;;;;9.64;100.00;98148.50;5088236;28;20094;-91
2022/04/25 02:33:34;;;;;;;22.85;7.30;;;;;;;9.75;100.00;98169.38;5088250;28;20043;-90
2022/04/25 02:36:01;;;;;;;13.77;7.30;;;;;;;9.81;100.00;98173.63;5086916;28;20493;-92
2022/04/25 02:38:26;;;;;;;18.00;7.18;;;;;;;9.69;100.00;98152.78;5087952;28;20159;-90
2022/04/25 02:43:44;;;;;;;20.23;6.20;;;;;;;9.73;100.00;98165.03;5134747;27;20124;-89
2022/04/25 02:46:11;;;;;;;29.15;6.85;;;;;;;9.81;100.00;98182.44;5115867;28;20533;-92
2022/04/25 02:48:38;;;;;;;17.38;6.50;;;;;;;9.91;100.00;98182.13;5111389;28;20043;-90
2022/04/25 02:51:05;;;;;;;19.17;6.80;;;;;;;9.79;100.00;98171.00;5113443;28;20058;-89
2022/04/25 02:53:32;;;;;;;18.20;6.90;;;;;;;9.82;100.00;98180.66;5115175;28;20070;-91
2022/04/25 02:55:58;;;;;;;18.38;7.45;;;;;;;9.73;100.00;98167.69;5117753;27;20028;-92
2022/04/25 02:58:26;;;;;;;15.85;6.93;;;;;;;9.79;100.00;98176.31;5114367;28;20038;-90
2022/04/25 03:00:53;;;;;;;19.98;8.40;;;;;;;9.74;100.00;98172.97;5115770;28;20057;-90
2022/04/25 03:03:20;;;;;;;17.23;8.30;;;;;;;9.80;100.00;98180.72;5113898;28;20032;-92
2022/04/25 03:05:47;;;;;;;16.58;7.88;;;;;;;9.70;100.00;98175.78;5111353;27;20056;-92
2022/04/25 03:08:14;;;;;;;19.27;7.90;;;;;;;9.76;100.00;98175.53;5116968;28;20050;-91
2022/04/25 03:10:42;;;;;;;21.35;7.38;;;;;;;9.85;100.00;98192.06;5112682;28;20076;-90
2022/04/25 03:13:09;;;;;;;24.17;7.95;;;;;;;9.85;100.00;98196.50;5115737;28;20046;-90
2022/04/25 03:15:40;;;;;;;20.35;7.53;;;;;;;9.77;100.00;98178.16;5115737;27;20505;-89
2022/04/25 03:18:09;;;;;;;17.48;7.40;;;;;;;9.77;100.00;98174.66;5114609;27;20118;-91
2022/04/25 03:20:37;;;;;;;19.15;6.53;;;;;;;9.83;100.00;98174.44;5115008;27;20043;-91
2022/04/25 03:23:05;;;;;;;21.63;6.45;;;;;;;9.88;100.00;98180.47;5115992;28;20138;-90
2022/04/25 03:25:31;;;;;;;19.25;6.65;;;;;;;9.85;100.00;98165.50;5118864;28;20511;-91
2022/04/25 03:27:57;;;;;;;14.80;6.50;;;;;;;9.90;100.00;98170.66;5114222;27;20052;-92
2022/04/25 03:30:23;;;;;;;22.15;7.55;;;;;;;9.93;100.00;98173.22;5115086;28;20536;-89
2022/04/25 03:32:49;;;;;;;18.38;7.22;;;;;;;9.96;100.00;98167.78;5116147;28;20586;-91
2022/04/25 03:35:18;;;;;;;20.40;7.18;;;;;;;10.08;100.00;98187.75;5111893;28;20453;-92
2022/04/25 03:37:43;;;;;;;;;;;;;;;10.08;100.00;98188.63;5115387;28;20397;-92
2022/04/25 03:40:10;;;;;;;18.95;6.45;;;;;;;9.93;100.00;98159.06;5113766;28;19920;-91
2022/04/25 03:42:37;;;;;;;21.85;7.72;;;;;;;10.00;100.00;98181.84;5114376;28;20130;-89
2022/04/25 03:45:03;;;;;;;11.82;5.90;;;;;;;9.98;100.00;98194.31;5117297;28;20028;-89
2022/04/25 03:47:29;;;;;;;24.92;6.32;;;;;;;9.93;100.00;98191.81;5113737;28;20036;-89
2022/04/25 03:49:56;;;;;;;14.00;6.63;;;;;;;9.89;100.00;98195.50;5114544;28;20044;-90
2022/04/25 03:52:24;;;;;;;15.65;5.90;;;;;;;9.80;100.00;98185.16;5114627;28;20031;-90
2022/04/25 03:57:44;;;;;;;15.73;5.82;;;;;;;9.91;100.00;98196.31;5113957;27;20126;-90
2022/04/25 04:00:11;;;;;;;15.52;7.65;;;;;;;9.84;100.00;98189.44;5093388;28;20076;-91
2022/04/25 04:02:37;;;;;;;23.02;7.35;;;;;;;9.87;100.00;98202.63;5096012;28;20035;-91
2022/04/25 04:05:03;;;;;;;19.38;6.82;;;;;;;9.80;100.00;98185.16;5094099;28;20048;-92
2022/04/25 04:07:29;;;;;;;12.00;6.13;;;;;;;9.82;100.00;98196.59;5094556;28;20173;-91
2022/04/25 04:09:55;;;;;;;18.08;7.35;;;;;;;9.87;100.00;98200.84;5095597;28;20070;-92
2022/04/25 04:12:24;;;;;;;14.15;6.05;;;;;;;9.85;100.00;98181.44;5092957;28;20758;-92
2022/04/25 04:14:51;;;;;;;13.13;6.27;;;;;;;9.93;100.00;98196.22;5093648;28;20036;-89
2022/04/25 04:17:17;;;;;;;17.23;6.40;;;;;;;10.02;100.00;98199.47;5096524;28;20488;-91
2022/04/25 04:19:43;;;;;;;17.08;6.40;;;;;;;10.06;100.00;98200.22;5096129;28;20035;-91
2022/04/25 04:22:09;;;;;;;14.20;5.95;;;;;;;9.97;100.00;98180.13;5094551;28;20626;-90
2022/04/25 04:24:38;;;;;;;24.80;5.82;;;;;;;10.03;100.00;98190.56;5091938;28;20062;-92
2022/04/25 04:27:05;;;;;;;12.63;5.32;;;;;;;10.06;100.00;98200.22;5097457;28;20121;-93
2022/04/25 04:29:33;;;;;;;18.13;6.00;;;;;;;10.14;100.00;98211.44;5094352;28;20087;-92
2022/04/25 04:32:02;;;;;;;16.65;6.10;;;;;;;10.03;100.00;98203.84;5094962;28;20052;-92
2022/04/25 04:34:28;;;;;;;22.83;6.82;;;;;;;10.13;100.00;98217.69;5093874;28;20058;-91
2022/04/25 04:36:55;;;;;;;19.33;6.63;;;;;;;10.08;100.00;98196.59;5094918;28;20125;-92
2022/04/25 04:39:21;;;;;;;18.02;6.03;;;;;;;10.14;100.00;98199.97;5097479;28;20036;-92
2022/04/25 04:41:47;;;;;;;21.77;5.90;;;;;;;10.18;100.00;98215.75;5090142;28;20048;-91
2022/04/25 04:44:13;;;;;;;17.60;7.03;;;;;;;10.13;100.00;98223.00;5096133;28;20086;-91
2022/04/25 04:46:39;;;;;;;19.17;6.20;;;;;;;9.95;100.00;98205.03;5098068;28;20044;-92
2022/04/25 04:49:06;;;;;;;20.00;6.35;;;;;;;9.85;100.00;98207.13;5094100;28;20124;-92
2022/04/25 04:51:33;;;;;;;22.65;6.50;;;;;;;9.91;100.00;98229.94;5091534;28;20393;-91
2022/04/25 04:53:59;;;;;;;17.20;5.75;;;;;;;9.84;100.00;98224.81;5093573;28;20036;-92
2022/04/25 04:56:25;;;;;;;15.85;5.47;;;;;;;9.81;100.00;98238.22;5098543;28;20066;-92
2022/04/25 04:58:51;;;;;;;17.65;6.05;;;;;;;9.74;100.00;98222.56;5094160;28;20052;-90
2022/04/25 05:01:17;;;;;;;21.48;6.25;;;;;;;9.81;100.00;98218.78;5093877;28;20062;-91
2022/04/25 05:03:44;;;;;;;18.20;6.35;;;;;;;9.80;100.00;98224.97;5094165;28;20032;-90
2022/04/25 05:06:12;;;;;;;14.10;6.00;;;;;;;9.97;100.00;98243.03;5093285;28;20037;-90
2022/04/25 05:08:38;;;;;;;15.57;6.00;;;;;;;9.96;100.00;98217.41;5084122;28;20397;-92
2022/04/25 05:11:05;;;;;;;14.68;6.55;;;;;;;9.99;100.00;98219.94;5082612;28;20119;-92
2022/04/25 05:13:32;;;;;;;18.83;6.25;;;;;;;10.24;100.00;98246.56;5080971;28;20048;-90
2022/04/25 05:15:58;;;;;;;12.02;5.88;;;;;;;10.23;100.00;98226.19;5077577;28;20036;-92
2022/04/25 05:18:24;;;;;;;15.20;6.53;;;;;;;10.38;100.00;98240.78;5078763;28;20039;-90
2022/04/25 05:20:50;;;;;;;19.15;6.60;;;;;;;10.37;100.00;98231.09;5081528;28;20032;-90
2022/04/25 05:23:17;;;;;;;16.33;6.18;;;;;;;10.40;100.00;98236.28;5078830;28;20573;-90
2022/04/25 05:25:43;;;;;;;24.42;6.40;;;;;;;10.47;100.00;98257.31;5085070;28;20044;-93
2022/04/25 05:28:09;;;;;;;20.23;6.43;;;;;;;10.38;100.00;98227.50;5075319;28;20102;-91
2022/04/25 05:30:35;;;;;;;19.25;6.20;;;;;;;10.50;100.00;98251.00;5080868;28;20486;-90
2022/04/25 05:33:02;;;;;;;22.30;7.32;;;;;;;10.50;100.00;98244.81;5078397;28;20051;-92
2022/04/25 05:35:30;;;;;;;31.20;8.77;;;;;;;10.55;100.00;98253.50;5078575;28;20782;-92
2022/04/25 05:37:57;;;;;;;22.40;8.23;;;;;;;10.51;100.00;98246.53;5079224;28;20032;-89
2022/04/25 05:40:25;;;;;;;21.75;9.00;;;;;;;10.65;100.00;98234.50;5081637;28;20037;-89
2022/04/25 05:42:52;;;;;;;30.33;11.23;;;;;;;10.98;100.00;98263.47;5079600;28;20041;-91
2022/04/25 05:45:20;;;;;;;35.92;10.60;;;;;;;11.16;100.00;98253.91;5083857;28;20071;-91
2022/04/25 05:47:47;;;;;;;33.75;10.63;;;;;;;11.21;100.00;98246.63;5082161;28;20502;-90
2022/04/25 05:53:12;;;;;;;26.60;10.45;;;;;;;11.62;100.00;98238.81;5145687;27;20133;-92
2022/04/25 05:55:38;;;;;;;24.38;10.95;;;;;;;11.85;100.00;98255.69;5129616;27;20051;-93
2022/04/25 05:58:07;;;;;;;25.08;10.75;;;;;;;12.06;100.00;98240.66;5129806;27;20393;-91
2022/04/25 06:00:34;;;;;;;21.95;9.60;;;;;;;12.29;100.00;98261.00;5129601;27;20430;-92
2022/04/25 06:03:01;;;;;;;18.63;7.35;;;;;;;12.17;100.00;98249.06;5130573;27;20621;-94
2022/04/25 06:05:27;;;;;;;17.58;7.15;;;;;;;12.10;100.00;98242.22;5130154;27;20043;-90
2022/04/25 06:07:53;;;;;;;19.95;6.95;;;;;;;12.17;100.00;98253.53;5130155;27;20039;-90
2022/04/25 06:10:23;;;;;;;21.98;8.00;;;;;;;12.18;100.00;98260.59;5128919;28;20044;-93
2022/04/25 06:12:50;;;;;;;22.20;6.68;;;;;;;12.04;100.00;98245.19;5129829;28;20118;-92
2022/04/25 06:15:17;;;;;;;16.88;7.85;;;;;;;12.12;100.00;98246.59;5129549;27;20047;-91
2022/04/25 06:17:43;;;;;;;15.38;7.47;;;;;;;12.07;100.00;98243.22;5128612;28;20043;-91
2022/04/25 06:20:10;;;;;;;20.42;6.93;;;;;;;12.23;100.00;98262.13;5129775;27;20050;-91
2022/04/25 06:22:37;;;;;;;18.70;6.20;;;;;;;12.35;100.00;98268.75;5130081;27;20035;-92
2022/04/25 06:25:04;;;;;;;20.25;6.25;;;;;;;12.67;100.00;98286.03;5129657;27;20096;-91
2022/04/25 06:27:31;;;;;;;16.38;6.28;;;;;;;12.84;97.75;98271.97;5129545;27;20048;-92
2022/04/25 06:29:57;;;;;;;26.83;9.25;;;;;;;12.85;96.68;98247.00;5128529;28;20066;-91
2022/04/25 06:32:23;;;;;;;20.20;6.72;;;;;;;13.08;97.05;98275.34;5129222;27;20032;-91
2022/04/25 06:34:49;;;;;;;17.30;6.47;;;;;;;13.03;96.45;98258.66;5129589;27;20039;-92
2022/04/25 06:37:15;;;;;;;18.77;7.15;;;;;;;13.16;96.41;98269.63;5129677;27;20929;-92
2022/04/25 06:39:41;;;;;;;21.10;6.60;;;;;;;12.93;94.57;98250.19;5130199;27;20071;-92
2022/04/25 06:42:10;;;;;;;14.45;5.80;;;;;;;13.01;94.68;98289.00;5129100;27;20038;-91
2022/04/25 06:44:38;;;;;;;15.45;6.20;;;;;;;13.09;96.90;98286.88;5128506;28;20031;-93
2022/04/25 06:47:05;;;;;;;18.42;6.60;;;;;;;13.19;95.61;98271.31;5129474;28;20110;-93
2022/04/25 06:49:32;;;;;;;19.35;6.53;;;;;;;13.46;94.44;98248.69;5129390;27;20031;-92
2022/04/25 06:52:00;;;;;;;13.88;5.72;;;;;;;14.03;90.32;98253.09;5129684;27;20066;-92
2022/04/25 06:54:27;;;;;;;16.33;6.17;;;;;;;14.09;90.75;98260.81;5128753;27;20049;-92
2022/04/25 06:56:54;;;;;;;17.95;5.70;;;;;;;14.05;89.10;98272.59;5128954;27;20420;-92
2022/04/25 06:59:21;;;;;;;16.85;5.40;;;;;;;13.76;89.83;98277.56;5129140;27;20039;-93
2022/04/25 07:01:50;;;;;;;18.67;6.90;;;;;;;13.70;90.65;98270.69;5129531;27;20035;-90
2022/04/25 07:04:16;;;;;;;26.88;6.38;;;;;;;13.81;92.45;98261.31;5116298;27;20550;-92
2022/04/25 07:06:43;;;;;;;21.63;6.47;;;;;;;14.09;89.45;98261.69;5116519;28;20040;-91
2022/04/25 07:09:12;;;;;;;22.40;6.97;;;;;;;14.38;88.14;98273.63;5116860;28;20099;-92
2022/04/25 07:11:43;;;;;;;16.80;5.47;;;;;;;14.56;85.92;98282.53;5117349;28;20035;-93
2022/04/25 07:14:09;;;;;;;15.65;5.75;;;;;;;14.67;87.57;98281.13;5115679;28;20059;-92
2022/04/25 07:16:35;;;;;;;14.45;6.30;;;;;;;14.63;87.12;98258.16;5116018;28;20039;-94
2022/04/25 07:19:03;;;;;;;20.90;6.60;;;;;;;14.92;87.26;98294.09;5114698;28;20036;-92
2022/04/25 07:30:25;;;;;;;18.42;6.65;;;;;;;15.46;80.38;98293.91;5147012;27;20332;-93
2022/04/25 07:32:50;;;;;;;15.98;6.00;;;;;;;15.15;79.31;98293.75;5131440;27;20062;-91
2022/04/25 07:35:18;;;;;;;20.05;5.85;;;;;;;14.95;82.77;98281.41;5131087;27;20088;-93
2022/04/25 07:37:44;;;;;;;32.10;6.80;;;;;;;15.06;83.92;98278.19;5130674;27;20053;-93
2022/04/25 07:40:10;;;;;;;15.38;5.35;;;;;;;15.34;83.32;98276.69;5130651;27;20118;-93
2022/04/25 07:42:38;;;;;;;16.17;5.15;;;;;;;15.42;79.91;98282.50;5131319;27;20116;-93
2022/04/25 07:45:05;;;;;;;13.68;5.07;;;;;;;15.34;81.04;98288.28;5130622;27;20038;-90
2022/04/25 07:47:32;;;;;;;16.27;5.25;;;;;;;14.95;80.73;98264.50;5130134;28;20047;-92
2022/04/25 07:49:58;;;;;;;16.63;5.20;;;;;;;14.77;84.41;98274.38;5129805;28;20035;-93
2022/04/25 07:52:24;;;;;;;20.13;6.30;;;;;;;14.66;84.70;98290.09;5131074;27;20053;-92
2022/04/25 07:54:52;;;;;;;15.85;5.80;;;;;;;14.50;86.12;98290.84;5131117;27;20131;-93
2022/04/25 07:57:19;;;;;;;14.07;5.00;;;;;;;14.48;88.37;98298.06;5130041;27;20127;-93
2022/04/25 07:59:44;;;;;;;18.40;6.43;;;;;;;15.32;84.51;98294.66;5132061;27;20061;-93
2022/04/25 08:02:11;;;;;;;17.77;5.70;;;;;;;15.54;82.70;98297.91;5131149;27;20274;-91
2022/04/25 08:04:38;;;;;;;15.27;4.95;;;;;;;16.12;81.21;98291.13;5131272;27;20122;-92
2022/04/25 08:07:05;;;;;;;14.10;4.57;;;;;;;16.13;75.45;98284.78;5131444;27;20040;-93
2022/04/25 08:09:31;;;;;;;18.10;4.75;;;;;;;16.22;78.02;98284.28;5131321;27;20396;-93
2022/04/25 08:18:04;;;;;;;11.20;4.30;;;;;;;16.28;75.50;98301.84;5137784;27;20600;-93
2022/04/25 08:20:34;;;;;;;17.00;4.20;;;;;;;16.27;74.74;98310.00;5110078;28;20047;-92
2022/04/25 08:23:01;;;;;;;10.07;4.18;;;;;;;16.00;74.89;98286.44;5111347;28;20153;-91
2022/04/25 08:25:30;;;;;;;8.73;3.90;;;;;;;16.04;75.04;98301.41;5109708;28;20448;-92
2022/04/25 08:27:56;;;;;;;13.55;3.90;;;;;;;16.04;74.82;98313.97;5111212;28;20044;-93
2022/04/25 08:30:22;;;;;;;11.10;4.75;;;;;;;16.34;75.10;98317.59;5111051;28;20039;-93
2022/04/25 08:32:48;;;;;;;13.30;4.75;;;;;;;16.51;73.47;98305.00;5111272;28;20036;-94
2022/04/25 08:35:15;;;;;;;16.90;4.75;;;;;;;16.47;72.27;98308.81;5110504;28;20085;-93
2022/04/25 08:37:42;;;;;;;15.07;4.85;;;;;;;16.64;72.00;98308.69;5111162;28;20047;-93
2022/04/25 08:40:09;;;;;;;12.43;4.82;;;;;;;17.14;71.04;98307.50;5110818;28;20039;-92
2022/04/25 08:42:35;;;;;;;12.18;4.20;;;;;;;17.14;68.94;98299.44;5110257;28;20032;-94
2022/04/25 08:45:05;;;;;;;11.55;4.20;;;;;;;16.80;71.19;98314.03;5111885;28;20044;-92
2022/04/25 08:47:35;;;;;;;16.17;4.20;;;;;;;17.03;70.47;98320.72;5113010;28;20067;-93
2022/04/25 08:50:01;;;;;;;17.88;4.70;;;;;;;17.02;69.25;98297.50;5110387;28;20047;-92
2022/04/25 08:52:29;;;;;;;14.07;6.00;;;;;;;17.28;68.60;98312.00;5109598;28;20044;-91
2022/04/25 08:54:57;;;;;;;21.53;9.03;;;;;;;16.73;68.26;98310.84;5109865;28;20093;-91
2022/04/25 08:57:24;;;;;;;9.13;4.10;;;;;;;17.00;67.54;98302.09;5111823;28;20034;-92
2022/04/25 08:59:51;;;;;;;15.57;6.60;;;;;;;17.06;67.75;98309.78;5111764;28;20040;-93
2022/04/25 09:02:17;;;;;;;11.63;4.55;;;;;;;17.36;68.21;98312.41;5110969;28;20032;-93
2022/04/25 09:04:44;;;;;;;12.38;4.47;;;;;;;17.63;68.74;98314.31;5114247;28;20069;-94
2022/04/25 09:07:10;;;;;;;15.80;4.95;;;;;;;17.54;67.24;98309.53;5113346;28;20082;-95
2022/04/25 09:09:37;;;;;;;10.63;5.00;;;;;;;17.39;66.84;98319.41;5111969;28;20047;-92
2022/04/25 09:12:13;;;;;;;9.10;3.55;;;;;;;16.99;65.12;98309.28;5106860;28;20070;-92
2022/04/25 09:14:41;;;;;;;12.77;5.05;;;;;;;16.75;65.83;98332.22;5107830;28;20046;-93
2022/04/25 09:17:07;;;;;;;10.95;4.85;;;;;;;16.61;65.96;98330.34;5113601;28;20047;-92
2022/04/25 09:19:34;;;;;;;15.40;6.25;;;;;;;16.61;63.39;98314.22;5111296;28;20040;-94
2022/04/25 09:22:01;;;;;;;9.45;4.40;;;;;;;16.19;64.01;98318.47;5109732;28;20048;-92
2022/04/25 09:24:28;;;;;;;10.88;4.65;;;;;;;15.88;65.63;98297.91;5110442;28;20032;-94
2022/04/25 09:27:12;;;;;;;8.95;3.80;;;;;;;15.98;65.84;98342.00;5110307;28;20115;-93
2022/04/25 09:29:39;;;;;;;12.20;4.40;;;;;;;15.91;65.73;98321.84;5097999;28;20055;-92
2022/04/25 09:32:09;;;;;;;11.55;4.30;;;;;;;15.95;67.21;98324.25;5100540;28;20048;-91
2022/04/25 09:37:45;;;;;;;13.27;4.50;;;;;;;16.18;67.45;98333.69;5126307;27;20226;-94
2022/04/25 09:40:15;;;;;;;13.00;4.03;;;;;;;16.26;66.51;98319.84;5092640;28;20044;-94
2022/04/25 09:42:41;;;;;;;13.27;3.90;;;;;;;16.37;66.56;98330.84;5089936;28;20504;-94
2022/04/25 09:45:07;;;;;;;7.03;3.92;;;;;;;16.62;64.09;98338.31;5092088;28;20059;-93
2022/04/25 09:47:36;;;;;;;13.25;4.82;;;;;;;16.40;64.62;98327.97;5090961;28;20036;-94
2022/04/25 09:50:04;;;;;;;14.45;5.30;;;;;;;16.66;65.36;98330.09;5091536;28;20094;-93
2022/04/25 09:52:30;;;;;;;17.92;5.07;;;;;;;16.87;65.26;98320.78;5095246;28;20032;-90
2022/04/25 09:55:10;;;;;;;12.75;4.80;;;;;;;17.05;64.95;98318.81;5092410;28;20067;-94
2022/04/25 09:57:36;;;;;;;12.15;4.80;;;;;;;17.09;65.20;98330.22;5086906;28;20498;-92
2022/04/25 10:00:03;;;;;;;8.70;4.13;;;;;;;17.27;64.49;98337.19;5088294;28;20520;-92
2022/04/25 10:02:29;;;;;;;10.40;4.07;;;;;;;17.39;61.81;98338.22;5090830;28;20039;-91
2022/04/25 10:04:56;;;;;;;10.43;4.20;;;;;;;17.37;60.80;98324.03;5091225;28;20048;-93
2022/04/25 10:07:24;;;;;;;10.15;3.90;;;;;;;17.43;60.03;98329.88;5087131;28;20048;-93
2022/04/25 10:09:52;;;;;;;16.90;4.40;;;;;;;17.65;60.26;98336.59;5092404;28;20063;-94
2022/04/25 10:12:20;;;;;;;12.50;4.47;;;;;;;17.89;60.76;98331.56;5089645;28;20048;-93
2022/04/25 10:14:47;;;;;;;10.30;4.33;;;;;;;18.08;59.72;98333.03;5091164;28;20039;-93
2022/04/25 10:17:15;;;;;;;9.65;4.05;;;;;;;18.12;58.61;98342.66;5090690;28;20060;-92
2022/04/25 10:19:43;;;;;;;9.57;3.80;;;;;;;18.26;58.77;98335.41;5091301;28;20047;-92
2022/04/25 10:22:10;;;;;;;15.27;6.22;;;;;;;17.55;59.43;98338.16;5091310;28;20126;-92
2022/04/25 10:24:38;;;;;;;16.02;5.72;;;;;;;17.49;61.63;98344.78;5091074;28;20047;-92
2022/04/25 10:27:09;;;;;;;13.88;6.13;;;;;;;17.74;61.52;98360.25;5091519;28;20036;-91
2022/04/25 10:29:37;;;;;;;11.70;5.93;;;;;;;18.03;59.67;98338.72;5089649;28;20036;-92
2022/04/25 10:32:05;;;;;;;7.80;4.68;;;;;;;18.34;60.03;98328.66;5092309;28;20096;-92
2022/04/25 10:34:45;;;;;;;14.35;4.50;;;;;;;18.88;56.72;98352.91;5091507;28;20569;-93
2022/04/25 10:37:32;;;;;;;11.75;3.92;;;;;;;19.65;56.01;98347.59;5092111;28;20043;-93
2022/04/25 10:40:02;;;;;;;8.73;3.95;;;;;;;20.02;53.63;98345.84;5087275;28;20041;-93
2022/04/25 10:45:54;;;;;;;9.45;3.80;;;;;;;20.36;52.31;98339.81;5148294;27;20228;-93
2022/04/25 10:48:19;;;;;;;14.98;5.15;;;;;;;20.27;53.23;98344.03;5127506;28;20412;-91
2022/04/25 10:51:12;;;;;;;11.98;3.60;;;;;;;20.56;52.22;98350.00;5132620;27;20036;-91
2022/04/25 10:53:59;;;;;;;10.25;3.67;;;;;;;19.95;52.04;98338.28;5131752;27;20039;-92
2022/04/25 10:56:26;;;;;;;7.80;4.03;;;;;;;19.65;53.12;98340.34;5132817;27;20035;-92
2022/04/25 10:59:23;;;;;;;9.27;3.47;;;;;;;19.44;52.71;98356.22;5131582;27;20046;-92
2022/04/25 11:01:51;;;;;;;8.13;3.25;;;;;;;18.91;52.80;98339.22;5132390;27;20118;-91
2022/04/25 11:04:18;;;;;;;7.38;3.70;;;;;;;18.87;53.99;98345.78;5130382;27;20496;-91
2022/04/25 11:06:44;;;;;;;8.20;3.70;;;;;;;18.86;52.04;98338.66;5132557;27;20035;-91
2022/04/25 11:09:10;;;;;;;10.00;3.50;;;;;;;19.21;53.38;98365.03;5132984;27;20404;-91
2022/04/25 11:11:47;;;;;;;11.63;4.55;;;;;;;19.60;52.91;98360.53;5130536;28;20039;-93
2022/04/25 11:14:15;;;;;;;9.25;5.22;;;;;;;19.89;52.62;98332.38;5130575;27;20048;-91
2022/04/25 11:16:42;;;;;;;7.60;4.22;;;;;;;19.75;51.56;98347.81;5130642;27;20554;-92
2022/04/25 11:19:13;;;;;;;9.45;4.13;;;;;;;19.34;50.27;98333.56;5129727;27;20031;-91
2022/04/25 11:21:45;;;;;;;6.55;3.50;;;;;;;19.70;50.10;98346.31;5128008;27;20040;-91
2022/04/25 11:24:33;;;;;;;7.15;3.38;;;;;;;19.34;50.24;98343.47;5128638;27;20034;-93
2022/04/25 11:27:00;;;;;;;8.55;3.00;;;;;;;19.88;50.22;98338.72;5128933;28;20048;-92
2022/04/25 11:29:27;;;;;;;6.07;3.28;;;;;;;19.82;51.61;98355.38;5129954;27;20052;-93
2022/04/25 11:32:24;;;;;;;9.27;4.18;;;;;;;20.27;49.95;98341.34;5129806;28;20043;-93
2022/04/25 11:34:52;;;;;;;11.32;5.28;;;;;;;20.55;49.62;98337.44;5130015;28;20039;-91
2022/04/25 11:37:19;;;;;;;9.15;3.47;;;;;;;20.44;49.47;98316.66;5130790;28;20046;-91
2022/04/25 11:39:55;;;;;;;7.93;3.47;;;;;;;20.33;49.75;98329.22;5130973;27;20118;-92
2022/04/25 11:42:25;;;;;;;13.95;4.10;;;;;;;20.44;49.35;98337.41;5129943;28;20036;-90
2022/04/25 11:44:55;;;;;;;9.10;3.03;;;;;;;20.44;47.56;98332.84;5129864;27;20044;-92
2022/04/25 11:47:22;;;;;;;7.35;3.10;;;;;;;20.25;48.97;98340.59;5131023;27;20042;-91
2022/04/25 11:49:56;;;;;;;9.52;3.33;;;;;;;19.69;50.20;98333.81;5126175;28;20115;-90
2022/04/25 11:52:22;;;;;;;9.32;3.83;;;;;;;20.36;50.99;98337.09;5129719;27;20130;-90
2022/04/25 11:54:49;;;;;;;8.75;3.30;;;;;;;20.68;49.52;98315.81;5127920;28;20044;-92
2022/04/25 11:57:15;;;;;;;8.25;4.40;;;;;;;20.39;48.50;98345.00;5116996;28;20031;-90
2022/04/25 11:59:43;;;;;;;8.13;4.20;;;;;;;20.28;51.04;98343.09;5118953;28;20110;-90
2022/04/25 12:02:10;;;;;;;8.53;3.60;;;;;;;20.55;51.14;98336.59;5116076;28;20114;-93